Time;durP1;ratioP1;P1;durP2;ratioP2;P2;SDS_P1;SDS_P2;PMS_P1;PMS_P2;Temp;Humidity;BMP_temperature;BMP_pressure;BME280_temperature;BME280_humidity;BME280_pressure;Samples;Min_cycle;Max_cycle;Signal;HPM_P1;HPM_P2
2021/10/04 00:03:20;;;;;;;2.28;0.40;;;12.70;99.90;;;;;;6653123;89;20197;-78
2021/10/04 00:13:21;;;;;;;1.40;0.50;;;12.60;99.90;;;;;;6651678;89;20209;-78
2021/10/04 00:23:22;;;;;;;0.88;0.40;;;12.70;99.90;;;;;;6664101;78;20724;-76
2021/10/04 00:33:23;;;;;;;1.00;0.50;;;12.60;99.90;;;;;;6681156;87;20345;-73
2021/10/04 00:43:24;;;;;;;1.62;0.40;;;12.60;99.90;;;;;;6684873;87;20245;-77
2021/10/04 00:53:24;;;;;;;3.08;0.50;;;12.60;99.90;;;;;;6686831;87;20649;-76
2021/10/04 01:03:25;;;;;;;1.33;0.50;;;12.50;99.90;;;;;;6679438;87;20201;-76
2021/10/04 01:13:26;;;;;;;1.15;0.45;;;12.50;99.90;;;;;;6693845;87;20294;-74
2021/10/04 01:23:28;;;;;;;2.37;0.50;;;12.50;99.90;;;;;;6694130;87;20192;-73
2021/10/04 01:33:28;;;;;;;1.92;0.47;;;12.30;99.90;;;;;;6692743;87;20224;-73
2021/10/04 01:43:29;;;;;;;3.05;0.50;;;12.20;99.90;;;;;;6688225;87;20203;-73
2021/10/04 01:53:30;;;;;;;1.12;0.40;;;12.40;99.90;;;;;;6683300;87;20311;-76
2021/10/04 02:03:31;;;;;;;3.83;0.50;;;12.50;99.90;;;;;;6704139;87;20619;-73
2021/10/04 02:13:31;;;;;;;2.05;0.50;;;12.70;99.90;;;;;;6691518;87;20498;-74
2021/10/04 02:23:32;;;;;;;2.85;0.50;;;12.70;99.90;;;;;;6677227;87;20191;-77
2021/10/04 02:33:32;;;;;;;3.70;0.50;;;12.80;99.90;;;;;;6684919;87;20224;-76
2021/10/04 02:43:33;;;;;;;1.48;0.40;;;12.70;99.90;;;;;;6701520;87;20207;-76
2021/10/04 02:53:33;;;;;;;2.72;0.60;;;12.70;99.90;;;;;;6697139;87;20175;-76
2021/10/04 03:03:34;;;;;;;2.95;0.50;;;12.60;99.90;;;;;;6693663;87;20345;-75
2021/10/04 03:13:34;;;;;;;2.62;0.60;;;12.50;99.90;;;;;;6709019;87;20850;-75
2021/10/04 03:23:35;;;;;;;1.42;0.50;;;12.50;99.90;;;;;;6699393;87;20802;-76
2021/10/04 03:33:36;;;;;;;1.70;0.60;;;12.50;99.90;;;;;;6709026;87;20257;-76
2021/10/04 03:43:36;;;;;;;2.17;0.50;;;12.50;99.90;;;;;;6712670;87;20191;-75
2021/10/04 03:53:37;;;;;;;1.73;0.73;;;12.40;99.90;;;;;;6723756;87;20338;-75
2021/10/04 04:03:38;;;;;;;2.03;0.50;;;12.40;99.90;;;;;;6716057;87;20199;-75
2021/10/04 04:13:38;;;;;;;1.62;0.50;;;12.40;99.90;;;;;;6703082;87;20203;-75
2021/10/04 04:23:39;;;;;;;2.62;0.60;;;12.30;99.90;;;;;;6682550;87;20191;-75
2021/10/04 04:33:39;;;;;;;3.50;0.75;;;12.30;99.90;;;;;;6705370;87;20642;-75
2021/10/04 04:43:40;;;;;;;3.87;0.80;;;12.20;99.90;;;;;;6689158;87;20171;-75
2021/10/04 04:53:40;;;;;;;2.92;0.70;;;12.10;99.90;;;;;;6703531;87;20210;-75
2021/10/04 05:03:41;;;;;;;1.75;0.80;;;12.10;99.90;;;;;;6705615;87;20202;-75
2021/10/04 05:13:43;;;;;;;2.50;0.90;;;12.10;99.90;;;;;;6686530;87;20597;-76
2021/10/04 05:23:44;;;;;;;2.53;0.93;;;12.20;99.90;;;;;;6698382;87;20322;-77
2021/10/04 05:33:45;;;;;;;3.28;1.05;;;12.20;99.90;;;;;;6696049;87;20895;-76
2021/10/04 05:43:45;;;;;;;2.85;1.00;;;12.10;99.90;;;;;;6684469;87;20637;-76
2021/10/04 05:53:47;;;;;;;1.73;0.90;;;12.10;99.90;;;;;;6677343;87;20625;-75
2021/10/04 06:03:47;;;;;;;3.95;0.90;;;12.20;99.90;;;;;;6675406;87;20180;-75
2021/10/04 06:13:48;;;;;;;1.67;0.70;;;12.30;99.90;;;;;;6674253;87;20688;-76
2021/10/04 06:23:48;;;;;;;2.70;1.00;;;12.30;99.90;;;;;;6676442;87;20191;-75
2021/10/04 06:34:30;;;;;;;2.30;0.70;;;12.40;99.90;;;;;;6677935;77;20188;-77
2021/10/04 06:44:30;;;;;;;2.47;0.90;;;12.60;99.90;;;;;;6668694;89;20311;-77
2021/10/04 06:54:31;;;;;;;2.45;0.90;;;12.70;99.90;;;;;;6666291;89;20672;-78
2021/10/04 07:04:31;;;;;;;4.90;1.35;;;12.90;99.90;;;;;;6663646;89;20324;-79
2021/10/04 07:14:32;;;;;;;3.85;1.00;;;13.20;99.90;;;;;;6666013;89;20199;-78
2021/10/04 07:24:33;;;;;;;7.03;1.10;;;13.30;99.90;;;;;;6661210;89;20281;-77
2021/10/04 07:34:34;;;;;;;2.75;0.93;;;13.50;99.90;;;;;;6665802;89;20542;-78
2021/10/04 07:44:35;;;;;;;4.22;1.00;;;13.60;99.90;;;;;;6664569;89;20229;-78
2021/10/04 07:54:35;;;;;;;1.80;1.00;;;13.70;99.90;;;;;;6664274;89;20212;-77
2021/10/04 08:04:36;;;;;;;3.37;1.55;;;13.70;99.90;;;;;;6667070;89;20200;-78
2021/10/04 08:14:37;;;;;;;4.10;1.00;;;14.00;99.90;;;;;;6669507;89;20218;-78
2021/10/04 08:24:38;;;;;;;2.53;0.85;;;14.20;99.90;;;;;;6667618;88;20324;-77
2021/10/04 08:34:38;;;;;;;1.75;1.00;;;14.50;99.90;;;;;;6669546;89;20212;-77
2021/10/04 08:44:41;;;;;;;1.65;0.77;;;14.70;99.90;;;;;;6672712;88;20202;-77
2021/10/04 08:54:45;;;;;;;3.53;0.80;;;14.90;99.90;;;;;;6674031;89;21016;-77
2021/10/04 09:04:47;;;;;;;1.50;0.70;;;15.10;99.90;;;;;;6670412;89;20212;-77
2021/10/04 09:14:47;;;;;;;2.05;0.80;;;15.10;99.90;;;;;;6669017;89;20203;-77
2021/10/04 09:24:48;;;;;;;1.50;0.70;;;15.10;99.90;;;;;;6666654;89;20195;-77
2021/10/04 09:34:48;;;;;;;3.03;0.93;;;15.20;99.90;;;;;;6662065;88;20285;-77
2021/10/04 09:44:58;;;;;;;3.23;0.90;;;15.20;99.90;;;;;;6665274;89;20657;-78
2021/10/04 09:54:58;;;;;;;2.08;0.90;;;15.40;99.90;;;;;;6665888;89;20326;-77
2021/10/04 10:04:59;;;;;;;2.13;1.17;;;15.70;99.90;;;;;;6666142;89;20199;-76
2021/10/04 10:15:02;;;;;;;3.92;1.00;;;15.70;99.90;;;;;;6666764;89;20548;-78
2021/10/04 10:25:02;;;;;;;2.08;0.73;;;16.30;99.90;;;;;;6667084;89;20664;-78
2021/10/04 10:35:03;;;;;;;2.47;0.90;;;16.70;99.90;;;;;;6666938;89;20387;-78
2021/10/04 10:45:05;;;;;;;1.87;0.60;;;17.50;99.90;;;;;;6666309;89;20213;-78
2021/10/04 10:55:20;;;;;;;3.78;0.65;;;17.60;99.90;;;;;;6665066;89;20233;-78
2021/10/04 11:05:39;;;;;;;2.83;0.70;;;19.00;99.90;;;;;;6665347;88;20388;-80
2021/10/04 11:15:41;;;;;;;2.85;0.50;;;19.10;99.90;;;;;;6665806;88;20199;-79
2021/10/04 11:25:44;;;;;;;1.90;0.60;;;20.10;99.90;;;;;;6664683;89;20240;-78
2021/10/04 11:35:57;;;;;;;1.73;0.50;;;19.20;99.90;;;;;;6661522;88;20340;-79
2021/10/04 11:46:14;;;;;;;4.43;0.62;;;19.90;99.90;;;;;;6667647;89;20179;-79
2021/10/04 11:56:15;;;;;;;1.83;0.50;;;19.20;99.90;;;;;;6667583;89;20310;-78
2021/10/04 12:06:15;;;;;;;4.18;0.50;;;19.80;99.90;;;;;;6664924;89;20182;-77
2021/10/04 12:16:18;;;;;;;1.80;0.40;;;19.80;99.90;;;;;;6661397;89;20198;-81
2021/10/04 12:26:18;;;;;;;2.95;0.50;;;19.80;99.90;;;;;;6632531;89;20214;-77
2021/10/04 12:36:19;;;;;;;1.00;0.50;;;20.60;97.70;;;;;;6704891;78;20191;-78
2021/10/04 12:46:21;;;;;;;0.90;0.40;;;20.70;97.40;;;;;;6695702;88;20203;-79
2021/10/04 12:56:29;;;;;;;3.87;0.50;;;21.50;96.10;;;;;;6705367;87;20305;-78
2021/10/04 13:06:32;;;;;;;1.30;0.40;;;21.80;94.00;;;;;;6707943;87;20207;-79
2021/10/04 13:16:33;;;;;;;1.75;0.40;;;21.20;94.00;;;;;;6702169;87;20202;-80
2021/10/04 13:26:34;;;;;;;3.90;0.50;;;21.50;93.20;;;;;;6695173;89;20178;-78
2021/10/04 13:36:35;;;;;;;2.20;0.50;;;21.00;94.00;;;;;;6694515;88;20356;-79
2021/10/04 13:46:36;;;;;;;2.25;0.50;;;20.80;95.10;;;;;;6688086;89;20538;-78
2021/10/04 13:56:36;;;;;;;1.12;0.40;;;21.30;93.70;;;;;;6710936;87;20720;-78
2021/10/04 14:06:37;;;;;;;1.17;0.43;;;20.80;93.90;;;;;;6699130;88;20728;-78
2021/10/04 14:16:38;;;;;;;2.87;0.60;;;21.10;94.90;;;;;;6715239;87;20197;-78
2021/10/04 14:26:38;;;;;;;1.65;0.52;;;20.50;93.80;;;;;;6714270;87;20190;-77
2021/10/04 14:36:39;;;;;;;1.25;0.40;;;19.80;95.00;;;;;;6701586;88;20814;-77
2021/10/04 14:46:39;;;;;;;1.62;0.50;;;20.40;94.80;;;;;;6715275;87;20296;-78
2021/10/04 14:56:40;;;;;;;2.53;0.60;;;20.30;95.00;;;;;;6701238;88;20619;-78
2021/10/04 15:06:40;;;;;;;2.33;0.62;;;20.00;94.90;;;;;;6717084;87;20198;-76
2021/10/04 15:16:41;;;;;;;2.17;0.60;;;19.70;96.00;;;;;;6709836;88;20209;-78
2021/10/04 15:26:42;;;;;;;3.37;0.50;;;19.20;95.50;;;;;;6702996;88;20218;-80
2021/10/04 15:36:42;;;;;;;2.17;0.52;;;18.60;96.20;;;;;;6698861;88;20496;-78
2021/10/04 15:46:43;;;;;;;2.15;0.60;;;18.10;97.80;;;;;;6697116;88;20194;-78
2021/10/04 15:56:44;;;;;;;1.95;0.50;;;17.90;98.60;;;;;;6697288;88;22642;-76
2021/10/04 16:06:44;;;;;;;2.42;0.60;;;18.00;98.60;;;;;;6686321;88;20296;-78
2021/10/04 16:16:45;;;;;;;3.08;1.00;;;18.00;98.80;;;;;;6696263;88;20275;-77
2021/10/04 16:26:45;;;;;;;3.58;0.70;;;17.80;99.70;;;;;;6692406;88;20673;-78
2021/10/04 16:36:46;;;;;;;1.77;0.60;;;17.50;99.90;;;;;;6710755;88;20197;-79
2021/10/04 16:46:48;;;;;;;2.95;0.80;;;17.20;99.90;;;;;;6728634;87;21018;-78
2021/10/04 16:56:48;;;;;;;11.18;4.47;;;16.70;99.90;;;;;;6697018;87;20190;-76
2021/10/04 17:06:49;;;;;;;1.50;0.67;;;16.50;99.90;;;;;;6701539;88;20260;-80
2021/10/04 17:16:49;;;;;;;4.78;1.70;;;16.10;99.90;;;;;;6706477;88;20248;-78
2021/10/04 17:26:50;;;;;;;6.15;3.12;;;15.70;99.90;;;;;;6705854;88;20191;-78
2021/10/04 17:36:51;;;;;;;6.10;3.40;;;15.40;99.90;;;;;;6703809;87;20260;-78
2021/10/04 17:46:51;;;;;;;3.47;1.52;;;14.90;99.90;;;;;;6704666;87;20537;-80
2021/10/04 17:56:52;;;;;;;9.20;3.75;;;14.60;99.90;;;;;;6723631;87;20218;-76
2021/10/04 18:06:53;;;;;;;6.10;2.62;;;14.30;99.90;;;;;;6686141;88;20380;-78
2021/10/04 18:16:53;;;;;;;4.60;1.77;;;14.00;99.90;;;;;;6688385;89;20220;-78
2021/10/04 18:26:55;;;;;;;5.62;1.87;;;13.70;99.90;;;;;;6685241;89;21049;-78
2021/10/04 18:36:56;;;;;;;2.72;1.20;;;13.40;99.90;;;;;;6688217;89;20215;-77
2021/10/04 18:46:57;;;;;;;3.17;1.20;;;13.50;99.90;;;;;;6687273;89;20182;-77
2021/10/04 18:56:58;;;;;;;3.12;1.50;;;13.60;99.90;;;;;;6686883;89;20194;-78
2021/10/04 19:06:58;;;;;;;3.58;1.48;;;13.60;99.90;;;;;;6687112;89;20270;-78
2021/10/04 19:16:59;;;;;;;4.15;1.58;;;13.30;99.90;;;;;;6686117;78;20229;-79
2021/10/04 19:27:00;;;;;;;4.10;1.42;;;13.10;99.90;;;;;;6661887;88;20187;-79
2021/10/04 19:37:00;;;;;;;5.45;1.55;;;12.70;99.90;;;;;;6650481;89;20234;-79
2021/10/04 19:47:03;;;;;;;3.65;1.23;;;12.70;99.90;;;;;;6646481;89;20211;-76
2021/10/04 19:57:06;;;;;;;4.35;1.42;;;12.50;99.90;;;;;;6657582;89;20308;-79
2021/10/04 20:07:07;;;;;;;3.58;1.17;;;12.40;99.90;;;;;;6646675;89;20636;-80
2021/10/04 20:17:07;;;;;;;3.62;1.35;;;12.30;99.90;;;;;;6652056;88;20196;-79
2021/10/04 20:27:08;;;;;;;2.47;1.20;;;12.40;99.90;;;;;;6650332;89;20665;-79
2021/10/04 20:37:09;;;;;;;2.12;1.12;;;12.40;99.90;;;;;;6661727;88;20208;-79
2021/10/04 20:47:10;;;;;;;5.72;1.83;;;12.30;99.90;;;;;;6662087;89;20289;-78
2021/10/04 20:57:10;;;;;;;5.75;1.20;;;12.20;99.90;;;;;;6661302;89;20193;-79
2021/10/04 21:07:14;;;;;;;5.30;1.37;;;12.00;99.90;;;;;;6648982;89;20294;-78
2021/10/04 21:17:20;;;;;;;6.18;1.50;;;11.90;99.90;;;;;;6648132;88;20209;-79
2021/10/04 21:27:21;;;;;;;2.78;1.20;;;11.90;99.90;;;;;;6643164;88;20387;-79
2021/10/04 21:37:23;;;;;;;3.55;1.40;;;11.80;99.90;;;;;;6669294;89;20256;-79
2021/10/04 21:47:25;;;;;;;2.58;1.50;;;11.90;99.90;;;;;;6666167;89;20258;-79
2021/10/04 21:57:28;;;;;;;2.55;1.30;;;11.90;99.90;;;;;;6655237;88;20277;-77
2021/10/04 22:17:48;;;;;;;3.95;1.30;;;11.90;99.90;;;;;;6726726;88;20201;-78
2021/10/04 22:27:49;;;;;;;3.05;1.40;;;11.80;99.90;;;;;;6691094;88;20199;-79
2021/10/04 22:37:49;;;;;;;4.28;1.65;;;11.80;99.90;;;;;;6639891;88;20216;-80
2021/10/04 22:47:50;;;;;;;3.25;1.55;;;11.80;99.90;;;;;;6635529;89;20189;-77
2021/10/04 22:57:50;;;;;;;4.70;1.70;;;11.80;99.90;;;;;;6657954;88;20201;-78
2021/10/04 23:07:51;;;;;;;2.87;1.65;;;11.80;99.90;;;;;;6686576;88;20192;-77
2021/10/04 23:17:52;;;;;;;6.80;2.10;;;11.80;99.90;;;;;;6687327;88;20634;-79
2021/10/04 23:27:52;;;;;;;5.33;2.67;;;11.60;99.90;;;;;;6692518;88;20246;-78
2021/10/04 23:37:53;;;;;;;6.03;2.83;;;11.80;99.90;;;;;;6696359;88;20512;-78
2021/10/04 23:47:53;;;;;;;6.62;2.95;;;11.70;99.90;;;;;;6676499;88;20647;-78
2021/10/04 23:57:54;;;;;;;6.82;2.90;;;11.70;99.90;;;;;;6665427;88;20205;-78
